Time;durP1;ratioP1;P1;durP2;ratioP2;P2;SDS_P1;SDS_P2;PMS_P1;PMS_P2;Temp;Humidity;BMP_temperature;BMP_pressure;BME280_temperature;BME280_humidity;BME280_pressure;Samples;Min_cycle;Max_cycle;Signal;HPM_P1;HPM_P2
2022/01/14 00:01:17;;;;;;;102.60;38.53;;;5.90;99.90;;;;;;5007787;28;20053;-64
2022/01/14 00:03:44;;;;;;;101.13;34.83;;;5.90;99.90;;;;;;5005479;28;20091;-63
2022/01/14 00:06:10;;;;;;;113.95;38.05;;;5.90;99.90;;;;;;5024314;28;20547;-63
2022/01/14 00:08:36;;;;;;;127.90;37.25;;;5.90;99.90;;;;;;5004940;28;20571;-63
2022/01/14 00:11:03;;;;;;;114.32;36.38;;;5.90;99.90;;;;;;5025226;28;20053;-64
2022/01/14 00:16:15;;;;;;;106.07;34.88;;;5.90;99.90;;;;;;5025065;28;20045;-63
2022/01/14 00:18:41;;;;;;;113.90;38.22;;;5.90;99.90;;;;;;5023600;28;20050;-62
2022/01/14 00:21:07;;;;;;;111.15;36.72;;;5.90;99.90;;;;;;4984674;28;20612;-63
2022/01/14 00:23:38;;;;;;;108.97;36.78;;;5.90;99.90;;;;;;5015734;28;20069;-63
2022/01/14 00:34:08;;;;;;;93.53;36.90;;;5.90;99.90;;;;;;5024106;28;20049;-58
2022/01/14 00:36:34;;;;;;;88.22;34.53;;;5.90;99.90;;;;;;4992124;28;20557;-57
2022/01/14 00:39:00;;;;;;;85.53;34.00;;;6.00;99.90;;;;;;5024059;28;20045;-57
2022/01/14 00:41:26;;;;;;;86.95;34.58;;;5.90;99.90;;;;;;4990226;28;20054;-57
2022/01/14 00:44:00;;;;;;;91.72;33.95;;;6.00;99.90;;;;;;4991939;28;20045;-57
2022/01/14 00:46:26;;;;;;;79.15;33.60;;;6.00;99.90;;;;;;5009622;28;20053;-58
2022/01/14 00:48:52;;;;;;;89.43;34.65;;;6.00;99.90;;;;;;4994948;28;20215;-57
2022/01/14 00:51:18;;;;;;;74.40;34.00;;;6.00;99.90;;;;;;5028724;28;20129;-59
2022/01/14 00:53:44;;;;;;;84.28;35.50;;;6.00;99.90;;;;;;5027669;28;20415;-57
2022/01/14 00:59:15;;;;;;;79.15;31.98;;;6.00;99.90;;;;;;4958089;28;20047;-57
2022/01/14 01:01:50;;;;;;;69.80;33.13;;;6.00;99.90;;;;;;5003763;28;20969;-63
2022/01/14 01:04:22;;;;;;;70.03;32.25;;;6.10;99.90;;;;;;5010676;28;20345;-63
2022/01/14 01:06:49;;;;;;;68.47;34.50;;;6.10;99.90;;;;;;5010398;28;20049;-62
2022/01/14 01:09:16;;;;;;;73.18;34.15;;;6.10;99.90;;;;;;5026905;28;20077;-63
2022/01/14 01:11:50;;;;;;;79.85;33.92;;;6.00;99.90;;;;;;5019903;28;20081;-63
2022/01/14 01:14:22;;;;;;;74.32;33.53;;;6.10;99.90;;;;;;5025066;28;20057;-63
2022/01/14 01:16:48;;;;;;;68.75;33.20;;;6.10;99.90;;;;;;4995392;28;20440;-63
2022/01/14 01:19:15;;;;;;;75.50;32.88;;;6.10;99.90;;;;;;4994508;28;20072;-63
2022/01/14 01:21:41;;;;;;;68.22;31.85;;;6.10;99.90;;;;;;4991366;28;20061;-63
2022/01/14 01:24:09;;;;;;;70.18;33.47;;;6.10;99.90;;;;;;5028605;28;20064;-63
2022/01/14 01:26:39;;;;;;;67.32;33.25;;;6.00;99.90;;;;;;5024422;28;20063;-63
2022/01/14 01:31:38;;;;;;;65.93;33.03;;;6.10;99.90;;;;;;5010554;28;20043;-63
2022/01/14 01:34:15;;;;;;;72.80;32.58;;;6.10;99.90;;;;;;5027650;28;20037;-62
2022/01/14 01:36:46;;;;;;;75.85;33.58;;;6.10;99.90;;;;;;5008788;28;20595;-63
2022/01/14 01:39:18;;;;;;;63.30;31.95;;;6.10;99.90;;;;;;4976200;28;20095;-64
2022/01/14 01:41:48;;;;;;;;;;;6.10;99.90;;;;;;5004920;28;20545;-62
2022/01/14 01:44:15;;;;;;;;;;;6.10;99.90;;;;;;5025995;28;20343;-63
2022/01/14 01:46:45;;;;;;;;;;;6.10;99.90;;;;;;5010221;28;19928;-63
2022/01/14 01:49:12;;;;;;;;;;;6.10;99.90;;;;;;5009342;28;19925;-58
2022/01/14 01:51:38;;;;;;;;;;;6.10;99.90;;;;;;5003536;28;19975;-58
2022/01/14 01:54:05;;;;;;;;;;;6.10;99.90;;;;;;5028680;28;19917;-63
2022/01/14 01:56:31;;;;;;;;;;;6.10;99.90;;;;;;5028709;28;20015;-59
2022/01/14 01:58:57;;;;;;;;;;;6.20;99.90;;;;;;5010662;28;19921;-62
2022/01/14 02:01:24;;;;;;;;;;;6.20;99.90;;;;;;5026196;28;20265;-58
2022/01/14 02:03:50;;;;;;;;;;;6.10;99.90;;;;;;5010205;28;19925;-58
2022/01/14 02:06:17;;;;;;;;;;;6.20;99.90;;;;;;5010504;28;20039;-57
2022/01/14 02:08:44;;;;;;;;;;;6.20;99.90;;;;;;5026414;28;19917;-58
2022/01/14 02:11:10;;;;;;;;;;;6.20;99.90;;;;;;5027679;28;19921;-57
2022/01/14 02:13:36;;;;;;;;;;;6.20;99.90;;;;;;4989380;28;20381;-57
2022/01/14 02:23:50;;;;;;;;;;;6.20;99.90;;;;;;5011467;28;19960;-64
2022/01/14 02:26:17;;;;;;;;;;;6.20;99.90;;;;;;5027734;28;19944;-64
2022/01/14 02:28:44;;;;;;;;;;;6.20;99.90;;;;;;5009275;28;19955;-63
2022/01/14 02:31:10;;;;;;;;;;;6.20;99.90;;;;;;5009739;28;19932;-63
2022/01/14 02:33:36;;;;;;;;;;;6.20;99.90;;;;;;5009560;28;19928;-63
2022/01/14 02:36:02;;;;;;;;;;;6.20;99.90;;;;;;5025076;28;19920;-57
2022/01/14 02:38:28;;;;;;;;;;;6.20;99.90;;;;;;5009501;28;20185;-57
2022/01/14 02:40:54;;;;;;;;;;;6.20;99.90;;;;;;5026741;28;20319;-57
2022/01/14 02:43:20;;;;;;;;;;;6.10;99.90;;;;;;5007750;28;20204;-57
2022/01/14 02:45:50;;;;;;;;;;;6.10;99.90;;;;;;5025501;28;19924;-58
2022/01/14 02:48:16;;;;;;;;;;;6.10;99.90;;;;;;4990097;28;19968;-58
2022/01/14 02:50:54;;;;;;;;;;;6.10;99.90;;;;;;4992424;28;19947;-58
2022/01/14 02:53:27;;;;;;;;;;;6.10;99.90;;;;;;5016934;28;19952;-57
2022/01/14 02:55:59;;;;;;;;;;;6.10;99.90;;;;;;4992619;28;20339;-57
2022/01/14 02:58:26;;;;;;;;;;;6.10;99.90;;;;;;5026128;28;20400;-57
2022/01/14 03:00:53;;;;;;;;;;;6.00;99.90;;;;;;5026937;28;19921;-59
2022/01/14 03:03:22;;;;;;;;;;;6.00;99.90;;;;;;5022603;28;20039;-58
2022/01/14 03:05:50;;;;;;;;;;;6.00;99.90;;;;;;4975962;28;19917;-59
2022/01/14 03:08:16;;;;;;;;;;;6.00;99.90;;;;;;4992634;28;19928;-59
2022/01/14 03:10:44;;;;;;;;;;;6.00;99.90;;;;;;5008267;28;19925;-64
2022/01/14 03:13:10;;;;;;;;;;;6.00;99.90;;;;;;5026564;28;20047;-64
2022/01/14 03:15:36;;;;;;;;;;;6.00;99.90;;;;;;5026047;28;19925;-59
2022/01/14 03:18:02;;;;;;;;;;;6.00;99.90;;;;;;5025114;28;19925;-58
2022/01/14 03:20:48;;;;;;;;;;;6.00;99.90;;;;;;5019462;28;20344;-59
2022/01/14 03:23:15;;;;;;;;;;;6.00;99.90;;;;;;4975933;28;20548;-58
2022/01/14 03:25:48;;;;;;;;;;;6.00;99.90;;;;;;4991690;28;20360;-59
2022/01/14 03:28:21;;;;;;;;;;;5.90;99.90;;;;;;5008184;28;19917;-64
2022/01/14 03:30:49;;;;;;;;;;;6.00;99.90;;;;;;5022252;28;20032;-57
2022/01/14 03:33:15;;;;;;;;;;;5.90;99.90;;;;;;5024279;28;19920;-59
2022/01/14 03:35:41;;;;;;;;;;;6.00;99.90;;;;;;5025521;28;20445;-59
2022/01/14 03:38:07;;;;;;;;;;;5.90;99.90;;;;;;4993151;28;19975;-64
2022/01/14 03:40:33;;;;;;;;;;;5.90;99.90;;;;;;5025072;28;19917;-63
2022/01/14 03:42:59;;;;;;;;;;;6.00;99.90;;;;;;5008661;28;19921;-57
2022/01/14 03:45:25;;;;;;;;;;;5.90;99.90;;;;;;5021907;28;19975;-63
2022/01/14 03:47:51;;;;;;;;;;;5.90;99.90;;;;;;5026985;28;19921;-63
2022/01/14 03:50:17;;;;;;;;;;;5.90;99.90;;;;;;5023787;28;19928;-57
2022/01/14 03:52:43;;;;;;;;;;;5.90;99.90;;;;;;5025837;28;19921;-58
2022/01/14 03:55:09;;;;;;;;;;;5.90;99.90;;;;;;5024369;28;19917;-58
2022/01/14 03:57:35;;;;;;;;;;;5.90;99.90;;;;;;5016811;28;19921;-58
2022/01/14 04:00:01;;;;;;;;;;;5.90;99.90;;;;;;5017150;28;19927;-57
2022/01/14 04:02:28;;;;;;;;;;;5.90;99.90;;;;;;5024830;28;20638;-57
2022/01/14 04:04:54;;;;;;;;;;;5.90;99.90;;;;;;5024669;28;20015;-63
2022/01/14 04:07:20;;;;;;;;;;;5.90;99.90;;;;;;5020266;28;20210;-63
2022/01/14 04:09:46;;;;;;;;;;;5.90;99.90;;;;;;5025236;28;19975;-57
2022/01/14 04:12:19;;;;;;;;;;;5.90;99.90;;;;;;5024935;28;19964;-63
2022/01/14 04:17:11;;;;;;;;;;;5.90;99.90;;;;;;5022125;28;19933;-63
2022/01/14 04:19:37;;;;;;;;;;;5.90;99.90;;;;;;5006351;28;20324;-63
2022/01/14 04:22:04;;;;;;;;;;;5.90;99.90;;;;;;5005452;28;19917;-63
2022/01/14 04:24:30;;;;;;;;;;;5.90;99.90;;;;;;5024509;28;19931;-57
2022/01/14 04:26:56;;;;;;;;;;;5.90;99.90;;;;;;5024367;28;20317;-59
2022/01/14 04:29:22;;;;;;;;;;;5.80;99.90;;;;;;5023913;28;19932;-62
2022/01/14 04:31:48;;;;;;;;;;;5.80;99.90;;;;;;5023803;28;20380;-58
2022/01/14 04:34:16;;;;;;;;;;;5.80;99.90;;;;;;5005846;28;20093;-63
2022/01/14 04:36:43;;;;;;;;;;;5.80;99.90;;;;;;5023675;28;20007;-63
2022/01/14 04:39:11;;;;;;;;;;;5.80;99.90;;;;;;5006965;28;19924;-64
2022/01/14 04:41:37;;;;;;;;;;;5.80;99.90;;;;;;5023000;28;19928;-58
2022/01/14 04:44:03;;;;;;;;;;;5.80;99.90;;;;;;5005750;28;19921;-63
2022/01/14 04:49:07;;;;;;;;;;;5.80;99.90;;;;;;5024999;28;20482;-57
2022/01/14 04:51:33;;;;;;;;;;;5.80;99.90;;;;;;5006306;28;19971;-63
2022/01/14 04:53:59;;;;;;;;;;;5.80;99.90;;;;;;5022032;28;19925;-58
2022/01/14 04:56:25;;;;;;;;;;;5.80;99.90;;;;;;5023105;28;19917;-63
2022/01/14 04:58:52;;;;;;;;;;;5.70;99.90;;;;;;5023367;28;20220;-57
2022/01/14 05:01:18;;;;;;;;;;;5.80;99.90;;;;;;5024482;28;19921;-63
2022/01/14 05:03:44;;;;;;;;;;;5.70;99.90;;;;;;5004984;28;19921;-63
2022/01/14 05:06:10;;;;;;;;;;;5.70;99.90;;;;;;5022800;28;20433;-63
2022/01/14 05:08:39;;;;;;;;;;;5.70;99.90;;;;;;4995553;28;20008;-62
2022/01/14 05:11:23;;;;;;;;;;;5.80;99.90;;;;;;5016751;28;20408;-63
2022/01/14 05:13:49;;;;;;;;;;;5.70;99.90;;;;;;5021707;28;19916;-63
2022/01/14 05:16:15;;;;;;;;;;;5.70;99.90;;;;;;5003135;28;19921;-57
2022/01/14 05:18:41;;;;;;;;;;;5.70;99.90;;;;;;5023370;28;20355;-63
2022/01/14 05:21:07;;;;;;;;;;;5.70;99.90;;;;;;4988658;28;19920;-62
2022/01/14 05:23:34;;;;;;;;;;;5.70;99.90;;;;;;5006493;28;19927;-63
2022/01/14 05:26:00;;;;;;;;;;;5.60;99.90;;;;;;5005098;28;20369;-63
2022/01/14 05:28:25;;;;;;;;;;;5.60;99.90;;;;;;5022955;28;19925;-63
2022/01/14 05:30:51;;;;;;;;;;;5.60;99.90;;;;;;5021178;28;20248;-63
2022/01/14 05:33:18;;;;;;;;;;;5.60;99.90;;;;;;5017924;28;19927;-63
2022/01/14 05:35:44;;;;;;;;;;;5.60;99.90;;;;;;5007088;28;19946;-63
2022/01/14 05:38:10;;;;;;;;;;;5.60;99.90;;;;;;5020747;28;19924;-63
2022/01/14 05:40:36;;;;;;;;;;;5.60;99.90;;;;;;5007920;28;19921;-63
2022/01/14 05:43:04;;;;;;;;;;;5.60;99.90;;;;;;4975405;28;20376;-63
2022/01/14 05:45:30;;;;;;;;;;;5.60;99.90;;;;;;4990291;28;19972;-63
2022/01/14 05:47:56;;;;;;;;;;;5.60;99.90;;;;;;5021699;28;19975;-64
2022/01/14 05:50:24;;;;;;;;;;;5.60;99.90;;;;;;4999547;28;19983;-63
2022/01/14 05:52:50;;;;;;;;;;;5.60;99.90;;;;;;5018907;28;19932;-63
2022/01/14 05:55:17;;;;;;;;;;;5.60;99.90;;;;;;5027730;28;20629;-63
2022/01/14 05:57:43;;;;;;;;;;;5.60;99.90;;;;;;5002507;28;20667;-63
2022/01/14 06:00:14;;;;;;;;;;;5.60;99.90;;;;;;5024581;28;20367;-63
2022/01/14 06:02:49;;;;;;;;;;;5.50;99.90;;;;;;5023369;28;20465;-57
2022/01/14 06:05:15;;;;;;;;;;;5.50;99.90;;;;;;5018585;28;19929;-57
2022/01/14 06:07:41;;;;;;;;;;;5.50;99.90;;;;;;5022587;28;19920;-63
2022/01/14 06:10:08;;;;;;;;;;;5.50;99.90;;;;;;5021869;28;19932;-63
2022/01/14 06:12:34;;;;;;;;;;;5.50;99.90;;;;;;5002362;28;20129;-65
2022/01/14 06:15:01;;;;;;;;;;;5.50;99.90;;;;;;5021886;28;19935;-63
2022/01/14 06:17:27;;;;;;;;;;;5.50;99.90;;;;;;5002400;28;19928;-64
2022/01/14 06:19:53;;;;;;;;;;;5.60;99.90;;;;;;5003585;28;19936;-63
2022/01/14 06:22:19;;;;;;;;;;;5.60;99.90;;;;;;5022051;28;20400;-63
2022/01/14 06:24:45;;;;;;;;;;;5.60;99.90;;;;;;5023989;28;20007;-63
2022/01/14 06:27:11;;;;;;;;;;;5.60;99.90;;;;;;5018235;28;19921;-63
2022/01/14 06:29:37;;;;;;;;;;;5.60;99.90;;;;;;5017383;28;20361;-63
2022/01/14 06:32:03;;;;;;;;;;;5.60;99.90;;;;;;4998811;28;19927;-63
2022/01/14 06:34:29;;;;;;;;;;;5.60;99.90;;;;;;5019552;28;20595;-63
2022/01/14 06:36:55;;;;;;;;;;;5.60;99.90;;;;;;5021290;28;19917;-63
2022/01/14 06:39:21;;;;;;;;;;;5.60;99.90;;;;;;5005830;28;19987;-63
2022/01/14 06:41:47;;;;;;;;;;;5.60;99.90;;;;;;5016799;28;19976;-63
2022/01/14 06:44:13;;;;;;;;;;;5.70;99.90;;;;;;4988022;28;19956;-63
2022/01/14 06:46:39;;;;;;;;;;;5.70;99.90;;;;;;5007692;28;19968;-63
2022/01/14 06:49:05;;;;;;;;;;;5.70;99.90;;;;;;5006935;28;19928;-63
2022/01/14 06:51:31;;;;;;;;;;;5.70;99.90;;;;;;5006034;28;19925;-63
2022/01/14 06:53:57;;;;;;;;;;;5.70;99.90;;;;;;5025969;28;20762;-63
2022/01/14 06:56:23;;;;;;;;;;;5.80;99.90;;;;;;5003957;28;19927;-65
2022/01/14 06:58:49;;;;;;;;;;;5.80;99.90;;;;;;5026398;28;20012;-64
2022/01/14 07:01:15;;;;;;;;;;;5.80;99.90;;;;;;5015603;28;19921;-63
2022/01/14 07:03:41;;;;;;;;;;;5.70;99.90;;;;;;5024183;28;19972;-63
2022/01/14 07:06:07;;;;;;;;;;;5.80;99.90;;;;;;5004563;28;20414;-63
2022/01/14 07:08:33;;;;;;;;;;;5.80;99.90;;;;;;5007855;28;20011;-57
2022/01/14 07:10:59;;;;;;;;;;;5.80;99.90;;;;;;4978896;28;20411;-58
2022/01/14 07:13:25;;;;;;;;;;;5.70;99.90;;;;;;5025282;28;20011;-58
2022/01/14 07:15:51;;;;;;;;;;;5.80;99.90;;;;;;5021492;28;19925;-57
2022/01/14 07:18:17;;;;;;;;;;;5.80;99.90;;;;;;5002784;28;19921;-63
2022/01/14 07:20:43;;;;;;;;;;;5.80;99.90;;;;;;5020604;28;20015;-63
2022/01/14 07:23:09;;;;;;;;;;;5.80;99.90;;;;;;5001831;28;19927;-66
2022/01/14 07:25:37;;;;;;;;;;;5.80;99.90;;;;;;5005889;28;19928;-64
2022/01/14 07:28:03;;;;;;;;;;;5.80;99.90;;;;;;5008246;28;19921;-63
2022/01/14 07:30:29;;;;;;;;;;;5.80;99.90;;;;;;5014683;28;19925;-63
2022/01/14 07:32:55;;;;;;;;;;;5.80;99.90;;;;;;5005348;28;19925;-63
2022/01/14 07:35:21;;;;;;;;;;;5.80;99.90;;;;;;5021662;28;19928;-63
2022/01/14 07:37:47;;;;;;;;;;;5.80;99.90;;;;;;5004487;28;20380;-63
2022/01/14 07:40:13;;;;;;;;;;;5.80;99.90;;;;;;5025344;28;19921;-64
2022/01/14 07:42:39;;;;;;;;;;;5.80;99.90;;;;;;5007100;28;19925;-64
2022/01/14 07:45:06;;;;;;;;;;;5.80;99.90;;;;;;5022988;28;20018;-64
2022/01/14 07:47:32;;;;;;;;;;;5.80;99.90;;;;;;4986302;28;19927;-64
2022/01/14 07:49:58;;;;;;;;;;;5.80;99.90;;;;;;5007735;28;19924;-63
2022/01/14 07:52:24;;;;;;;;;;;5.80;99.90;;;;;;5020013;28;19971;-64
2022/01/14 07:54:50;;;;;;;;;;;5.80;99.90;;;;;;5020319;28;19925;-64
2022/01/14 07:57:17;;;;;;;;;;;5.80;99.90;;;;;;4995955;28;19922;-64
2022/01/14 07:59:43;;;;;;;;;;;5.80;99.90;;;;;;5004834;28;20484;-64
2022/01/14 08:02:10;;;;;;;;;;;5.80;99.90;;;;;;4990170;28;19967;-63
2022/01/14 08:04:37;;;;;;;;;;;5.80;99.90;;;;;;5021964;28;19964;-64
2022/01/14 08:07:09;;;;;;;;;;;5.80;99.90;;;;;;5001666;28;19921;-64
2022/01/14 08:09:39;;;;;;;;;;;5.90;99.90;;;;;;4986391;28;19929;-63
2022/01/14 08:12:05;;;;;;;;;;;5.90;99.90;;;;;;4980778;28;19978;-63
2022/01/14 08:14:31;;;;;;;;;;;5.90;99.90;;;;;;4980647;28;20513;-64
2022/01/14 08:16:58;;;;;;;;;;;5.90;99.90;;;;;;5009852;28;19924;-59
2022/01/14 08:19:24;;;;;;;;;;;5.90;99.90;;;;;;5025162;28;19917;-64
2022/01/14 08:21:50;;;;;;;;;;;6.00;99.90;;;;;;5012530;28;19921;-64
2022/01/14 08:24:16;;;;;;;;;;;6.00;99.90;;;;;;4991722;28;20383;-62
2022/01/14 08:26:42;;;;;;;;;;;6.00;99.90;;;;;;4990573;28;19921;-63
2022/01/14 08:29:08;;;;;;;;;;;6.00;99.90;;;;;;5024815;28;19928;-57
2022/01/14 08:31:34;;;;;;;;;;;6.00;99.90;;;;;;5021637;28;20299;-57
2022/01/14 08:34:00;;;;;;;;;;;6.00;99.90;;;;;;5018156;28;19928;-57
2022/01/14 08:36:29;;;;;;;;;;;6.10;99.90;;;;;;5011150;28;19922;-54
2022/01/14 08:38:55;;;;;;;;;;;6.10;99.90;;;;;;5006545;28;19986;-62
2022/01/14 08:41:23;;;;;;;;;;;6.10;99.90;;;;;;4956566;28;19928;-62
2022/01/14 08:43:49;;;;;;;;;;;6.10;99.90;;;;;;5009307;28;19921;-62
2022/01/14 08:46:15;;;;;;;;;;;6.10;99.90;;;;;;4987473;28;19924;-62
2022/01/14 08:48:41;;;;;;;;;;;6.20;99.90;;;;;;5011305;28;19922;-62
2022/01/14 08:51:07;;;;;;;;;;;6.20;99.90;;;;;;5000084;28;19933;-62
2022/01/14 08:53:34;;;;;;;;;;;6.20;99.90;;;;;;5005699;28;19949;-62
2022/01/14 08:56:00;;;;;;;;;;;6.20;99.90;;;;;;5017208;28;20407;-62
2022/01/14 08:58:27;;;;;;;;;;;6.30;99.90;;;;;;5006818;28;20289;-63
2022/01/14 09:00:53;;;;;;;;;;;6.40;99.90;;;;;;4979008;28;20452;-62
2022/01/14 09:03:21;;;;;;;;;;;6.30;99.90;;;;;;5016099;28;20011;-62
2022/01/14 09:05:47;;;;;;;;;;;6.30;99.90;;;;;;5013060;28;20484;-65
2022/01/14 09:08:13;;;;;;;;;;;6.40;99.90;;;;;;5013329;28;21164;-57
2022/01/14 09:10:39;;;;;;;;;;;6.40;99.90;;;;;;5018199;28;19936;-58
2022/01/14 09:13:05;;;;;;;;;;;6.40;99.90;;;;;;4998349;28;19918;-57
2022/01/14 09:15:31;;;;;;;;;;;6.50;99.90;;;;;;5021766;28;20453;-62
2022/01/14 09:17:57;;;;;;;;;;;6.50;99.90;;;;;;4989486;28;19974;-57
2022/01/14 09:20:23;;;;;;;;;;;6.50;99.90;;;;;;5029009;28;19956;-57
2022/01/14 09:22:51;;;;;;;;;;;6.50;99.90;;;;;;5008621;28;19921;-57
2022/01/14 09:25:18;;;;;;;;;;;6.50;99.90;;;;;;4995651;28;20443;-58
2022/01/14 09:27:47;;;;;;;;;;;6.60;99.90;;;;;;4992343;28;19972;-56
2022/01/14 09:30:13;;;;;;;;;;;6.60;99.90;;;;;;5010643;28;19925;-57
2022/01/14 09:32:39;;;;;;;;;;;6.60;99.90;;;;;;5010345;28;19920;-57
2022/01/14 09:35:07;;;;;;;;;;;6.60;99.90;;;;;;5011166;28;19917;-58
2022/01/14 09:37:34;;;;;;;;;;;6.70;99.90;;;;;;5021580;28;20364;-58
2022/01/14 09:40:00;;;;;;;;;;;6.70;99.90;;;;;;5028845;28;20383;-58
2022/01/14 09:42:26;;;;;;;;;;;6.70;99.90;;;;;;4985347;28;19924;-57
2022/01/14 09:44:52;;;;;;;;;;;6.70;99.90;;;;;;5009974;28;19947;-58
2022/01/14 09:47:19;;;;;;;;;;;6.80;99.90;;;;;;5024116;28;20388;-57
2022/01/14 09:49:45;;;;;;;;;;;6.80;99.90;;;;;;4976391;28;19933;-58
2022/01/14 09:52:12;;;;;;;;;;;6.80;99.90;;;;;;4969611;28;20383;-57
2022/01/14 09:54:40;;;;;;;;;;;6.80;99.90;;;;;;5007638;28;20348;-58
2022/01/14 09:57:08;;;;;;;;;;;6.90;99.90;;;;;;5007897;28;20363;-59
2022/01/14 09:59:34;;;;;;;;;;;7.00;99.90;;;;;;4992490;28;20242;-57
2022/01/14 10:02:01;;;;;;;;;;;7.00;99.90;;;;;;5025505;28;19925;-58
2022/01/14 10:04:27;;;;;;;;;;;7.00;99.90;;;;;;5002763;28;19921;-58
2022/01/14 10:06:54;;;;;;;;;;;7.10;99.90;;;;;;5009675;28;20083;-58
2022/01/14 10:09:23;;;;;;;;;;;7.10;99.90;;;;;;5002326;28;20333;-58
2022/01/14 10:12:01;;;;;;;;;;;7.10;99.90;;;;;;4995000;28;19928;-58
2022/01/14 10:14:27;;;;;;;;;;;7.10;99.90;;;;;;5025164;28;19928;-58
2022/01/14 10:16:54;;;;;;;;;;;7.20;99.90;;;;;;5020829;28;20360;-62
2022/01/14 10:19:22;;;;;;;;;;;7.20;99.90;;;;;;5019235;28;19979;-61
2022/01/14 10:21:48;;;;;;;;;;;7.30;99.90;;;;;;4998173;28;19925;-62
2022/01/14 10:24:14;;;;;;;;;;;7.30;99.90;;;;;;4996487;28;19932;-62
2022/01/14 10:26:48;;;;;;;;;;;7.40;99.90;;;;;;5000619;28;19928;-62
2022/01/14 10:29:14;;;;;;;;;;;7.40;99.90;;;;;;4999473;28;19921;-62
2022/01/14 10:31:43;;;;;;;;;;;7.40;99.90;;;;;;5008057;28;19925;-62
2022/01/14 10:34:13;;;;;;;;;;;7.40;99.90;;;;;;5021107;28;19921;-58
2022/01/14 10:36:41;;;;;;;;;;;7.40;99.90;;;;;;4989888;28;19925;-58
2022/01/14 10:39:17;;;;;;;;;;;7.40;99.90;;;;;;5006524;28;19928;-58
2022/01/14 10:41:43;;;;;;;;;;;7.50;99.90;;;;;;5007149;28;20016;-58
2022/01/14 10:44:42;;;;;;;;;;;7.60;99.90;;;;;;5019971;28;20057;-59
2022/01/14 10:47:09;;;;;;;;;;;7.60;99.90;;;;;;4962891;28;20633;-57
2022/01/14 10:49:37;;;;;;;;;;;7.70;99.90;;;;;;4995019;28;20659;-57
2022/01/14 10:52:30;;;;;;;;;;;7.70;99.90;;;;;;4980617;28;19948;-57
2022/01/14 10:54:57;;;;;;;;;;;7.70;99.90;;;;;;4986712;28;20408;-57
2022/01/14 10:57:23;;;;;;;;;;;7.70;99.90;;;;;;4984451;28;19917;-57
2022/01/14 10:59:51;;;;;;;;;;;7.60;99.90;;;;;;5022613;28;19921;-57
2022/01/14 11:02:52;;;;;;;;;;;7.70;99.90;;;;;;5005323;28;19936;-58
2022/01/14 11:05:19;;;;;;;;;;;7.70;99.90;;;;;;4948370;28;19925;-57
2022/01/14 11:07:47;;;;;;;;;;;7.70;99.90;;;;;;5007220;28;19924;-57
2022/01/14 11:10:13;;;;;;;;;;;7.70;99.90;;;;;;5009052;28;19975;-57
2022/01/14 11:12:39;;;;;;;;;;;7.70;99.90;;;;;;4981397;28;19917;-57
2022/01/14 11:15:06;;;;;;;;;;;7.70;99.90;;;;;;4987595;28;19925;-61
2022/01/14 11:17:32;;;;;;;;;;;7.70;99.90;;;;;;4999500;28;19921;-61
2022/01/14 11:19:58;;;;;;;;;;;7.70;99.90;;;;;;5015256;28;19921;-61
2022/01/14 11:25:10;;;;;;;;;;;7.70;99.90;;;;;;5016324;28;19931;-61
2022/01/14 11:27:37;;;;;;;;;;;7.70;99.90;;;;;;5016650;28;20008;-63
2022/01/14 11:30:03;;;;;;;;;;;7.70;99.90;;;;;;4988618;28;19925;-60
2022/01/14 11:32:49;;;;;;;;;;;7.70;99.90;;;;;;5016243;28;19921;-61
2022/01/14 11:35:19;;;;;;;;;;;7.60;99.90;;;;;;5016992;28;20283;-61
2022/01/14 11:37:46;;;;;;;;;;;7.70;99.90;;;;;;5017093;28;20419;-61
2022/01/14 11:40:14;;;;;;;;;;;7.70;99.90;;;;;;5018956;28;20064;-60
2022/01/14 11:42:44;;;;;;;;;;;7.60;99.90;;;;;;5018332;28;20001;-61
2022/01/14 11:45:11;;;;;;;;;;;7.60;99.90;;;;;;5017646;28;21095;-61
2022/01/14 11:47:40;;;;;;;;;;;7.60;99.90;;;;;;5019935;28;20361;-61
2022/01/14 11:50:18;;;;;;;;;;;7.60;99.90;;;;;;5017258;28;19921;-61
2022/01/14 11:52:45;;;;;;;;;;;7.60;99.90;;;;;;5015899;28;19943;-61
2022/01/14 11:55:30;;;;;;;;;;;7.60;99.90;;;;;;5003589;28;19921;-61
2022/01/14 11:57:58;;;;;;;;;;;7.60;99.90;;;;;;5018835;28;19921;-61
2022/01/14 12:02:57;;;;;;;;;;;7.70;99.90;;;;;;5015491;28;19928;-60
2022/01/14 12:05:24;;;;;;;;;;;7.70;99.90;;;;;;5020072;28;20013;-61
2022/01/14 12:08:02;;;;;;;;;;;7.70;99.90;;;;;;4999264;28;20478;-61
2022/01/14 12:10:35;;;;;;;;;;;7.70;99.90;;;;;;5015557;28;19933;-60
2022/01/14 12:16:07;;;;;;;;;;;7.70;99.90;;;;;;5004607;28;19928;-60
2022/01/14 12:18:52;;;;;;;;;;;7.70;99.90;;;;;;5005997;28;20367;-57
2022/01/14 12:21:18;;;;;;;;;;;7.70;99.90;;;;;;5019419;28;19935;-56
2022/01/14 12:23:44;;;;;;;;;;;7.70;99.90;;;;;;5005680;28;19925;-57
2022/01/14 12:26:20;;;;;;;;;;;7.70;99.90;;;;;;5019102;28;19925;-57
2022/01/14 12:29:05;;;;;;;;;;;7.70;99.90;;;;;;5018013;28;20442;-57
2022/01/14 12:31:55;;;;;;;;;;;7.80;99.90;;;;;;5013790;28;20307;-57
2022/01/14 12:34:21;;;;;;;;;;;7.80;99.90;;;;;;4990602;28;19968;-57
2022/01/14 12:36:47;;;;;;;;;;;7.70;99.90;;;;;;5000395;28;19964;-57
2022/01/14 12:39:13;;;;;;;;;;;7.80;99.90;;;;;;5002433;28;19964;-57
2022/01/14 12:41:39;;;;;;;;;;;7.80;99.90;;;;;;5002880;28;19994;-57
2022/01/14 12:44:05;;;;;;;;;;;7.80;99.90;;;;;;4990963;28;20011;-58
2022/01/14 12:49:19;;;;;;;;;;;7.80;99.90;;;;;;4984194;28;19917;-57
2022/01/14 12:51:45;;;;;;;;;;;7.80;99.90;;;;;;5002436;28;19968;-57
2022/01/14 12:54:11;;;;;;;;;;;7.80;99.90;;;;;;5008469;28;20398;-57
2022/01/14 12:56:41;;;;;;;;;;;7.80;99.90;;;;;;5003270;28;20379;-56
2022/01/14 12:59:09;;;;;;;;;;;7.70;99.90;;;;;;5020006;28;19932;-61
2022/01/14 13:01:43;;;;;;;;;;;7.80;99.90;;;;;;5001425;28;19971;-61
2022/01/14 13:04:10;;;;;;;;;;;7.70;99.90;;;;;;5003480;28;19921;-61
2022/01/14 13:06:47;;;;;;;;;;;7.70;99.90;;;;;;5015899;28;19924;-62
2022/01/14 13:09:18;;;;;;;;;;;7.70;99.90;;;;;;5022343;28;19921;-62
2022/01/14 13:11:45;;;;;;;;;;;7.60;99.90;;;;;;4970008;28;19967;-62
2022/01/14 13:14:16;;;;;;;;;;;7.70;99.90;;;;;;5020426;28;20375;-62
2022/01/14 13:16:43;;;;;;;;;;;7.60;99.90;;;;;;5016185;28;19939;-63
2022/01/14 13:19:23;;;;;;;;;;;7.70;99.90;;;;;;5003465;28;19960;-62
2022/01/14 13:21:49;;;;;;;;;;;7.70;99.90;;;;;;5017340;28;20471;-62
2022/01/14 13:24:18;;;;;;;;;;;7.60;99.90;;;;;;5006194;28;20056;-64
2022/01/14 13:26:56;;;;;;;;;;;7.60;99.90;;;;;;5015455;28;19956;-64
2022/01/14 13:29:22;;;;;;;;;;;7.70;99.90;;;;;;4973481;28;20280;-62
2022/01/14 13:31:48;;;;;;;;;;;7.60;99.90;;;;;;5019184;28;19917;-62
2022/01/14 13:34:14;;;;;;;;;;;7.70;99.90;;;;;;5012924;28;19938;-63
2022/01/14 13:36:41;;;;;;;;;;;7.70;99.90;;;;;;5020395;28;20571;-63
2022/01/14 13:39:10;;;;;;;;;;;7.70;99.90;;;;;;5018512;28;19964;-63
2022/01/14 13:41:39;;;;;;;;;;;7.70;99.90;;;;;;5020540;28;19981;-62
2022/01/14 13:44:18;;;;;;;;;;;7.60;99.90;;;;;;5023584;28;20031;-62
2022/01/14 13:46:50;;;;;;;;;;;7.70;99.90;;;;;;5019974;28;20331;-63
2022/01/14 13:49:20;;;;;;;;;;;7.60;99.90;;;;;;5020576;28;19917;-62
2022/01/14 13:52:00;;;;;;;;;;;7.60;99.90;;;;;;4991342;28;20500;-62
2022/01/14 13:54:26;;;;;;;;;;;7.60;99.90;;;;;;4999647;28;19924;-64
2022/01/14 13:56:52;;;;;;;;;;;7.60;99.90;;;;;;5021061;28;19967;-65
2022/01/14 13:59:21;;;;;;;;;;;7.60;99.90;;;;;;5000069;28;20335;-62
2022/01/14 14:01:58;;;;;;;;;;;7.50;99.90;;;;;;5004284;28;19991;-62
2022/01/14 14:04:26;;;;;;;;;;;7.60;99.90;;;;;;4993228;28;20396;-62
2022/01/14 14:07:03;;;;;;;;;;;7.60;99.90;;;;;;4995758;28;19921;-62
2022/01/14 14:09:36;;;;;;;;;;;7.50;99.90;;;;;;5014985;28;19947;-63
2022/01/14 14:17:58;;;;;;;;;;;7.50;99.90;;;;;;4998598;28;19975;-62
2022/01/14 14:20:24;;;;;;;;;;;7.50;99.90;;;;;;5014708;28;20002;-62
2022/01/14 14:22:52;;;;;;;;;;;7.50;99.90;;;;;;5012978;28;20019;-62
2022/01/14 14:27:55;;;;;;;;;;;7.50;99.90;;;;;;4999508;28;19928;-62
2022/01/14 14:30:22;;;;;;;;;;;7.40;99.90;;;;;;5019752;28;19932;-62
2022/01/14 14:32:48;;;;;;;;;;;7.40;99.90;;;;;;4998545;28;19928;-62
2022/01/14 14:35:16;;;;;;;;;;;7.40;99.90;;;;;;5002210;28;19917;-62
2022/01/14 14:37:47;;;;;;;;;;;7.40;99.90;;;;;;4989112;28;19921;-62
2022/01/14 14:40:18;;;;;;;;;;;7.40;99.90;;;;;;4985071;28;20384;-62
2022/01/14 14:42:45;;;;;;;;;;;7.40;99.90;;;;;;5007270;28;19918;-62
2022/01/14 14:45:11;;;;;;;;;;;7.40;99.90;;;;;;4989527;28;19932;-62
2022/01/14 14:47:37;;;;;;;;;;;7.40;99.90;;;;;;5009435;28;20467;-62
2022/01/14 14:50:05;;;;;;;;;;;7.40;99.90;;;;;;4991448;28;20396;-62
2022/01/14 14:52:31;;;;;;;;;;;7.40;99.90;;;;;;4987437;28;20324;-63
2022/01/14 14:54:57;;;;;;;;;;;7.40;99.90;;;;;;4988650;28;19921;-62
2022/01/14 14:57:23;;;;;;;;;;;7.30;99.90;;;;;;5006432;28;19921;-62
2022/01/14 14:59:50;;;;;;;;;;;7.40;99.90;;;;;;4989344;28;20301;-63
2022/01/14 15:02:16;;;;;;;;;;;7.40;99.90;;;;;;4989700;28;19967;-62
2022/01/14 15:04:42;;;;;;;;;;;7.40;99.90;;;;;;4975446;28;19968;-62
2022/01/14 15:07:09;;;;;;;;;;;7.40;99.90;;;;;;5008789;28;20287;-62
2022/01/14 15:09:35;;;;;;;;;;;7.40;99.90;;;;;;5001038;28;19926;-62